createdAt,value
2023-04-05T00:00:13.481Z,48.00
2023-04-05T00:02:45.408Z,47.83
2023-04-05T00:05:14.829Z,47.58
2023-04-05T00:07:48.285Z,47.35
2023-04-05T00:10:17.784Z,47.20
2023-04-05T00:12:47.075Z,47.52
2023-04-05T00:15:16.542Z,47.77
2023-04-05T00:17:48.489Z,47.66
2023-04-05T00:20:17.788Z,47.49
2023-04-05T00:22:47.408Z,47.17
2023-04-05T00:25:16.656Z,47.35
2023-04-05T00:27:45.957Z,47.65
2023-04-05T00:30:20.870Z,47.88
2023-04-05T00:32:53.110Z,48.05
2023-04-05T00:35:22.884Z,48.59
2023-04-05T00:37:52.157Z,48.69
2023-04-05T00:40:21.734Z,48.91
2023-04-05T00:42:51.081Z,49.00
2023-04-05T00:45:20.590Z,49.00
2023-04-05T00:47:49.973Z,49.05
2023-04-05T00:50:22.014Z,49.14
2023-04-05T00:52:51.430Z,49.27
2023-04-05T00:55:20.818Z,48.42
2023-04-05T00:57:50.176Z,48.16
2023-04-05T01:00:19.685Z,48.52
2023-04-05T01:02:52.438Z,48.66
2023-04-05T01:05:28.785Z,49.11
2023-04-05T01:08:00.550Z,49.80
2023-04-05T01:10:30.998Z,49.47
2023-04-05T01:13:00.293Z,49.00
2023-04-05T01:15:29.630Z,49.47
2023-04-05T01:18:02.287Z,49.06
2023-04-05T01:20:34.692Z,49.51
2023-04-05T01:23:16.441Z,49.78
2023-04-05T01:26:00.883Z,49.39
2023-04-05T01:28:37.983Z,49.54
2023-04-05T01:31:10.881Z,49.68
2023-04-05T01:33:42.461Z,49.76
2023-04-05T01:36:13.878Z,49.33
2023-04-05T01:38:43.332Z,49.91
2023-04-05T01:41:12.598Z,49.78
2023-04-05T01:43:41.962Z,49.79
2023-04-05T01:46:13.860Z,49.98
2023-04-05T01:48:43.185Z,49.69
2023-04-05T01:51:12.548Z,49.36
2023-04-05T01:53:42.155Z,49.48
2023-04-05T01:56:11.449Z,49.84
2023-04-05T01:58:41.428Z,49.90
2023-04-05T02:01:10.740Z,49.89
2023-04-05T02:03:42.836Z,49.72
2023-04-05T02:06:12.232Z,49.68
2023-04-05T02:08:41.582Z,49.84
2023-04-05T02:11:11.337Z,50.08
2023-04-05T02:13:40.628Z,50.32
2023-04-05T02:16:09.924Z,50.29
2023-04-05T02:18:41.997Z,50.85
2023-04-05T02:21:11.694Z,50.27
2023-04-05T02:23:41.025Z,50.24
2023-04-05T02:26:10.469Z,50.32
2023-04-05T02:28:39.809Z,50.82
2023-04-05T02:31:11.648Z,50.86
2023-04-05T02:33:43.520Z,50.75
2023-04-05T02:36:13.547Z,50.96
2023-04-05T02:38:42.839Z,50.77
2023-04-05T02:41:12.667Z,50.60
2023-04-05T02:43:41.969Z,50.56
2023-04-05T02:46:11.258Z,50.44
2023-04-05T02:48:43.520Z,49.87
2023-04-05T02:51:12.800Z,49.67
2023-04-05T02:53:42.585Z,49.87
2023-04-05T02:56:11.850Z,50.26
2023-04-05T02:58:41.176Z,50.51
2023-04-05T03:01:10.500Z,50.51
2023-04-05T03:03:40.869Z,51.01
2023-04-05T03:06:13.527Z,51.12
2023-04-05T03:08:44.305Z,50.45
2023-04-05T03:11:13.676Z,50.13
2023-04-05T03:13:43.016Z,49.77
2023-04-05T03:16:12.868Z,49.52
2023-04-05T03:18:42.164Z,49.83
2023-04-05T03:21:14.217Z,50.46
2023-04-05T03:23:43.532Z,50.59
2023-04-05T03:26:13.256Z,50.75
2023-04-05T03:28:45.379Z,50.72
2023-04-05T03:31:14.803Z,51.16
2023-04-05T03:33:44.132Z,51.31
2023-04-05T03:36:16.738Z,50.98
2023-04-05T03:38:47.001Z,50.63
2023-04-05T03:41:16.422Z,50.91
2023-04-05T03:43:45.758Z,50.80
2023-04-05T03:46:15.072Z,50.70
2023-04-05T03:48:44.357Z,50.81
2023-04-05T03:51:16.708Z,50.89
2023-04-05T03:53:46.216Z,50.84
2023-04-05T03:56:15.917Z,51.09
2023-04-05T03:58:45.166Z,51.18
2023-04-05T04:01:14.851Z,50.83
2023-04-05T04:03:44.140Z,50.89
2023-04-05T04:06:18.648Z,50.95
2023-04-05T04:08:48.605Z,51.84
2023-04-05T04:11:17.930Z,51.41
2023-04-05T04:13:47.202Z,51.68
2023-04-05T04:16:18.235Z,51.61
2023-04-05T04:18:47.572Z,51.79
2023-04-05T04:21:19.433Z,51.49
2023-04-05T04:23:50.277Z,51.13
2023-04-05T04:26:29.160Z,50.96
2023-04-05T04:28:58.607Z,51.09
2023-04-05T04:31:27.893Z,51.13
2023-04-05T04:33:57.150Z,51.02
2023-04-05T04:36:39.418Z,50.80
2023-04-05T04:39:09.049Z,51.03
2023-04-05T04:41:38.383Z,51.31
2023-04-05T04:44:07.754Z,50.94
2023-04-05T04:46:43.148Z,50.79
2023-04-05T04:49:13.475Z,50.76
2023-04-05T04:51:45.407Z,51.21
2023-04-05T04:54:16.959Z,50.69
2023-04-05T04:56:46.229Z,51.02
2023-04-05T04:59:16.316Z,51.16
2023-04-05T05:01:47.670Z,51.58
2023-04-05T05:04:16.994Z,52.21
2023-04-05T05:06:48.912Z,52.00
2023-04-05T05:09:18.181Z,51.61
2023-04-05T05:11:47.437Z,51.60
2023-04-05T05:14:16.730Z,51.50
2023-04-05T05:16:46.119Z,51.70
2023-04-05T05:19:15.448Z,51.55
2023-04-05T05:21:44.720Z,51.32
2023-04-05T05:24:16.846Z,50.79
2023-04-05T05:26:46.174Z,50.60
2023-04-05T05:29:15.609Z,50.64
2023-04-05T05:31:45.233Z,50.50
2023-04-05T05:34:14.536Z,50.33
2023-04-05T05:36:44.084Z,50.08
2023-04-05T05:39:16.103Z,49.20
2023-04-05T05:41:45.512Z,49.21
2023-04-05T05:44:14.976Z,49.21
2023-04-05T05:46:44.282Z,48.77
2023-04-05T05:49:13.580Z,48.51
2023-04-05T05:51:42.881Z,48.16
2023-04-05T05:54:12.174Z,47.74
2023-04-05T05:56:44.066Z,47.48
2023-04-05T05:59:13.416Z,47.49
2023-04-05T06:01:46.636Z,47.09
2023-04-05T06:04:16.696Z,46.89
2023-04-05T06:06:47.883Z,46.63
2023-04-05T06:09:17.425Z,46.49
2023-04-05T06:11:56.433Z,45.89
2023-04-05T06:14:27.206Z,45.65
2023-04-05T06:16:56.729Z,45.83
2023-04-05T06:19:26.049Z,46.90
2023-04-05T06:21:55.502Z,46.38
2023-04-05T06:24:24.795Z,45.46
2023-04-05T06:26:56.954Z,45.24
2023-04-05T06:29:26.301Z,45.95
2023-04-05T06:31:55.753Z,46.45
2023-04-05T06:34:25.078Z,45.45
2023-04-05T06:36:56.017Z,44.11
2023-04-05T06:39:25.280Z,43.02
2023-04-05T06:41:57.914Z,41.76
2023-04-05T06:44:27.306Z,41.42
2023-04-05T06:46:56.589Z,41.09
2023-04-05T06:49:25.996Z,40.44
2023-04-05T06:51:55.273Z,40.38
2023-04-05T06:54:25.121Z,40.62
2023-04-05T06:56:57.747Z,39.49
2023-04-05T06:59:27.828Z,38.89
2023-04-05T07:01:57.116Z,37.92
2023-04-05T07:04:26.849Z,37.71
2023-04-05T07:06:56.865Z,36.99
2023-04-05T07:09:28.858Z,36.96
2023-04-05T07:12:01.682Z,37.50
2023-04-05T07:14:32.800Z,35.15
2023-04-05T07:17:02.105Z,34.78
2023-04-05T07:19:31.615Z,35.51
2023-04-05T07:22:01.790Z,34.83
2023-04-05T07:24:31.124Z,34.00
2023-04-05T07:27:03.232Z,33.14
2023-04-05T07:29:32.884Z,32.84
2023-04-05T07:32:02.251Z,31.33
2023-04-05T07:34:31.522Z,30.95
2023-04-05T07:37:00.789Z,30.06
2023-04-05T07:39:30.227Z,29.24
2023-04-05T07:41:59.513Z,27.41
2023-04-05T07:44:31.410Z,25.70
2023-04-05T07:47:00.817Z,24.54
2023-04-05T07:49:30.728Z,22.81
2023-04-05T07:52:00.023Z,20.59
2023-04-05T07:54:29.471Z,18.69
2023-04-05T07:56:58.788Z,18.39
2023-04-05T07:59:28.124Z,17.67
2023-04-05T08:02:05.039Z,18.31
2023-04-05T08:04:41.575Z,17.31
2023-04-05T08:07:10.886Z,17.63
2023-04-05T08:09:40.169Z,17.25
2023-04-05T08:12:11.549Z,16.72
2023-04-05T08:14:40.955Z,17.40
2023-04-05T08:17:12.827Z,17.17
2023-04-05T08:19:42.109Z,17.90
2023-04-05T08:22:11.457Z,17.30
2023-04-05T08:24:40.825Z,16.53
2023-04-05T08:27:10.112Z,16.58
2023-04-05T08:29:39.410Z,16.85
2023-04-05T08:32:09.234Z,16.79
2023-04-05T08:34:41.229Z,16.90
2023-04-05T08:37:10.500Z,16.75
2023-04-05T08:39:39.756Z,15.21
2023-04-05T08:42:11.858Z,15.20
2023-04-05T08:44:41.431Z,15.76
2023-04-05T08:47:15.328Z,15.88
2023-04-05T08:49:49.053Z,15.54
2023-04-05T08:52:18.322Z,14.96
2023-04-05T08:54:49.635Z,15.82
2023-04-05T08:57:20.089Z,16.35
2023-04-05T08:59:49.868Z,15.43
2023-04-05T09:02:21.231Z,15.15
2023-04-05T09:04:53.073Z,15.82
2023-04-05T09:07:22.748Z,15.97
2023-04-05T09:09:53.058Z,16.05
2023-04-05T09:12:23.152Z,16.52
2023-04-05T09:14:52.461Z,16.89
2023-04-05T09:17:21.809Z,17.63
2023-04-05T09:19:53.678Z,18.70
2023-04-05T09:22:22.953Z,20.32
2023-04-05T09:24:52.253Z,21.79
2023-04-05T09:27:21.830Z,24.11
2023-04-05T09:29:51.332Z,24.23
2023-04-05T09:32:21.553Z,24.59
2023-04-05T09:34:54.086Z,22.61
2023-04-05T09:37:23.997Z,24.27
2023-04-05T09:39:53.487Z,24.46
2023-04-05T09:42:23.569Z,24.11
2023-04-05T09:44:56.148Z,23.56
2023-04-05T09:47:25.958Z,24.15
2023-04-05T09:49:57.821Z,25.12
2023-04-05T09:52:27.757Z,25.15
2023-04-05T09:54:58.294Z,24.38
2023-04-05T09:57:29.676Z,24.86
2023-04-05T09:59:58.970Z,24.54
2023-04-05T10:02:28.397Z,23.45
2023-04-05T10:05:00.383Z,24.06
2023-04-05T10:07:29.654Z,22.57
2023-04-05T10:09:58.968Z,21.48
2023-04-05T10:12:29.635Z,20.23
2023-04-05T10:14:59.448Z,20.62
2023-04-05T10:17:30.437Z,17.27
2023-04-05T10:20:05.289Z,19.42
2023-04-05T10:22:36.665Z,20.14
2023-04-05T10:25:08.040Z,21.34
2023-04-05T10:27:38.302Z,20.40
2023-04-05T10:30:09.214Z,22.75
2023-04-05T10:32:44.884Z,23.33
2023-04-05T10:35:19.047Z,24.12
2023-04-05T10:37:52.827Z,25.60
2023-04-05T10:40:22.285Z,28.00
2023-04-05T10:42:51.635Z,26.24
2023-04-05T10:45:23.324Z,27.41
2023-04-05T10:47:53.407Z,28.24
2023-04-05T10:50:25.985Z,28.31
2023-04-05T10:52:55.371Z,26.37
2023-04-05T10:55:24.936Z,27.24
2023-04-05T10:57:54.212Z,26.54
2023-04-05T11:00:23.787Z,25.89
2023-04-05T11:02:56.592Z,25.80
2023-04-05T11:05:35.883Z,25.21
2023-04-05T11:08:08.873Z,24.12
2023-04-05T11:10:38.992Z,25.07
2023-04-05T11:13:09.083Z,23.46
2023-04-05T11:15:38.476Z,23.80
2023-04-05T11:18:08.792Z,24.40
2023-04-05T11:20:45.196Z,25.18
2023-04-05T11:23:14.954Z,24.19
2023-04-05T11:25:44.219Z,24.29
2023-04-05T11:28:13.470Z,24.72
2023-04-05T11:30:49.211Z,22.85
2023-04-05T11:33:33.381Z,23.41
2023-04-05T11:36:07.113Z,25.34
2023-04-05T11:38:36.397Z,26.06
2023-04-05T11:41:08.166Z,28.34
2023-04-05T11:43:38.501Z,25.09
2023-04-05T11:46:08.010Z,24.33
2023-04-05T11:48:37.324Z,25.36
2023-04-05T11:51:12.490Z,25.63
2023-04-05T11:53:41.884Z,25.37
2023-04-05T11:56:13.908Z,25.83
2023-04-05T11:58:43.177Z,26.04
2023-04-05T12:01:12.438Z,26.03
2023-04-05T12:03:41.815Z,26.52
2023-04-05T12:06:13.729Z,26.08
2023-04-05T12:08:43.509Z,27.06
2023-04-05T12:11:13.490Z,25.02
2023-04-05T12:13:42.934Z,28.47
2023-04-05T12:16:12.219Z,27.65
2023-04-05T12:18:41.492Z,25.72
2023-04-05T12:21:13.544Z,26.48
2023-04-05T12:23:42.878Z,24.47
2023-04-05T12:26:12.147Z,24.79
2023-04-05T12:28:54.323Z,24.21
2023-04-05T12:31:44.502Z,23.45
2023-04-05T12:34:14.132Z,23.05
2023-04-05T12:36:48.841Z,25.73
2023-04-05T12:39:18.872Z,26.06
2023-04-05T12:41:48.165Z,27.79
2023-04-05T12:44:17.723Z,26.02
2023-04-05T12:46:47.903Z,26.88
2023-04-05T12:49:17.767Z,24.79
2023-04-05T12:51:49.824Z,25.52
2023-04-05T12:54:23.281Z,24.17
2023-04-05T12:56:53.076Z,25.55
2023-04-05T12:59:22.423Z,26.31
2023-04-05T13:01:51.893Z,27.24
2023-04-05T13:04:23.264Z,27.37
2023-04-05T13:06:55.819Z,26.13
2023-04-05T13:09:25.098Z,26.64
2023-04-05T13:11:54.420Z,26.07
2023-04-05T13:14:23.701Z,26.25
2023-04-05T13:16:52.975Z,27.04
2023-04-05T13:19:22.251Z,26.47
2023-04-05T13:21:51.538Z,24.83
2023-04-05T13:24:23.361Z,24.38
2023-04-05T13:26:52.645Z,24.95
2023-04-05T13:29:21.902Z,24.59
2023-04-05T13:31:51.204Z,25.34
2023-04-05T13:34:20.621Z,27.42
2023-04-05T13:36:50.023Z,26.45
2023-04-05T13:39:19.374Z,27.20
2023-04-05T13:41:51.218Z,26.16
2023-04-05T13:44:20.475Z,25.05
2023-04-05T13:46:49.871Z,26.50
2023-04-05T13:49:19.176Z,25.89
2023-04-05T13:51:48.441Z,26.90
2023-04-05T13:54:19.145Z,26.70
2023-04-05T13:56:51.008Z,25.90
2023-04-05T13:59:20.660Z,25.71
2023-04-05T14:01:50.076Z,25.84
2023-04-05T14:04:19.539Z,26.16
2023-04-05T14:06:48.957Z,26.45
2023-04-05T14:09:18.224Z,26.95
2023-04-05T14:11:47.577Z,27.67
2023-04-05T14:14:19.467Z,27.40
2023-04-05T14:16:48.762Z,27.78
2023-04-05T14:19:19.767Z,27.50
2023-04-05T14:21:50.550Z,28.48
2023-04-05T14:24:19.830Z,28.67
2023-04-05T14:26:49.967Z,27.79
2023-04-05T14:29:21.898Z,27.97
2023-04-05T14:31:51.234Z,28.40
2023-04-05T14:34:20.714Z,28.16
2023-04-05T14:36:50.029Z,27.89
2023-04-05T14:39:19.612Z,27.74
2023-04-05T14:41:52.602Z,28.17
2023-04-05T14:44:25.949Z,29.22
2023-04-05T14:46:55.602Z,28.39
2023-04-05T14:49:24.901Z,28.85
2023-04-05T14:51:54.189Z,29.22
2023-04-05T14:54:23.473Z,28.29
2023-04-05T14:56:52.744Z,29.14
2023-04-05T14:59:25.701Z,28.36
2023-04-05T15:01:55.035Z,30.09
2023-04-05T15:04:24.314Z,29.62
2023-04-05T15:06:53.590Z,29.01
2023-04-05T15:09:22.887Z,29.59
2023-04-05T15:11:54.428Z,30.05
2023-04-05T15:14:32.062Z,30.10
2023-04-05T15:17:01.715Z,29.58
2023-04-05T15:19:31.186Z,28.10
2023-04-05T15:22:00.511Z,28.09
2023-04-05T15:24:30.064Z,27.67
2023-04-05T15:27:02.503Z,27.44
2023-04-05T15:29:34.709Z,27.90
2023-04-05T15:32:04.110Z,28.08
2023-04-05T15:34:34.352Z,28.07
2023-04-05T15:37:03.678Z,27.06
2023-04-05T15:39:32.987Z,27.10
2023-04-05T15:42:03.117Z,27.36
2023-04-05T15:44:34.977Z,28.69
2023-04-05T15:47:04.258Z,29.06
2023-04-05T15:49:33.526Z,28.74
2023-04-05T15:52:02.991Z,27.74
2023-04-05T15:54:32.289Z,29.14
2023-04-05T15:57:01.973Z,29.77
2023-04-05T15:59:31.312Z,29.33
2023-04-05T16:02:03.330Z,28.70
2023-04-05T16:04:32.693Z,28.89
2023-04-05T16:07:01.992Z,27.93
2023-04-05T16:09:31.278Z,27.40
2023-04-05T16:12:00.677Z,27.94
2023-04-05T16:14:30.187Z,28.24
2023-04-05T16:16:59.528Z,27.94
2023-04-05T16:19:31.654Z,28.41
2023-04-05T16:22:03.092Z,28.65
2023-04-05T16:24:33.337Z,28.25
2023-04-05T16:27:02.781Z,28.54
2023-04-05T16:29:32.382Z,29.63
2023-04-05T16:32:01.720Z,29.30
2023-04-05T16:34:33.438Z,28.41
2023-04-05T16:37:05.548Z,29.36
2023-04-05T16:39:34.883Z,29.47
2023-04-05T16:42:04.647Z,30.02
2023-04-05T16:44:33.920Z,30.67
2023-04-05T16:47:03.249Z,30.68
2023-04-05T16:49:32.538Z,30.39
2023-04-05T16:52:01.903Z,31.20
2023-04-05T16:54:34.298Z,30.39
2023-04-05T16:57:03.566Z,30.75
2023-04-05T16:59:32.980Z,30.59
2023-04-05T17:02:02.448Z,31.33
2023-04-05T17:04:32.545Z,31.20
2023-04-05T17:07:01.894Z,30.49
2023-04-05T17:09:33.757Z,30.61
2023-04-05T17:12:04.177Z,29.93
2023-04-05T17:14:33.505Z,30.84
2023-04-05T17:17:02.771Z,30.81
2023-04-05T17:19:32.172Z,30.47
2023-04-05T17:22:01.454Z,30.54
2023-04-05T17:24:36.304Z,30.74
2023-04-05T17:27:08.246Z,31.24
2023-04-05T17:29:37.612Z,31.29
2023-04-05T17:32:06.889Z,31.25
2023-04-05T17:34:36.258Z,32.06
2023-04-05T17:37:05.576Z,32.03
2023-04-05T17:39:34.894Z,31.84
2023-04-05T17:42:04.156Z,31.56
2023-04-05T17:44:36.122Z,32.03
2023-04-05T17:47:09.076Z,32.12
2023-04-05T17:49:39.164Z,32.81
2023-04-05T17:52:08.944Z,33.63
2023-04-05T17:54:39.412Z,34.95
2023-04-05T17:57:15.295Z,35.66
2023-04-05T17:59:47.575Z,35.57
2023-04-05T18:02:17.041Z,34.76
2023-04-05T18:04:46.547Z,35.77
2023-04-05T18:07:15.900Z,35.65
2023-04-05T18:09:45.346Z,36.20
2023-04-05T18:12:18.282Z,35.86
2023-04-05T18:14:50.553Z,35.89
2023-04-05T18:17:20.277Z,35.56
2023-04-05T18:19:50.289Z,35.45
2023-04-05T18:22:19.551Z,36.14
2023-04-05T18:24:48.900Z,36.20
2023-04-05T18:27:18.173Z,36.49
2023-04-05T18:29:50.299Z,36.95
2023-04-05T18:32:19.730Z,37.84
2023-04-05T18:34:49.189Z,37.54
2023-04-05T18:37:18.459Z,37.77
2023-04-05T18:39:47.749Z,36.63
2023-04-05T18:42:17.098Z,37.41
2023-04-05T18:44:46.364Z,37.14
2023-04-05T18:47:18.220Z,37.64
2023-04-05T18:49:47.500Z,37.59
2023-04-05T18:52:22.049Z,37.15
2023-04-05T18:54:51.352Z,37.33
2023-04-05T18:57:20.753Z,36.42
2023-04-05T18:59:50.042Z,37.31
2023-04-05T19:02:21.945Z,37.85
2023-04-05T19:04:51.731Z,38.14
2023-04-05T19:07:22.014Z,38.72
2023-04-05T19:09:51.286Z,38.39
2023-04-05T19:12:20.550Z,38.46
2023-04-05T19:14:49.827Z,38.41
2023-04-05T19:17:19.090Z,38.36
2023-04-05T19:19:51.343Z,38.18
2023-04-05T19:22:20.645Z,38.36
2023-04-05T19:24:49.933Z,38.08
2023-04-05T19:27:19.208Z,38.21
2023-04-05T19:29:48.475Z,38.60
2023-04-05T19:32:17.878Z,38.31
2023-04-05T19:34:47.150Z,38.00
2023-04-05T19:37:19.018Z,38.18
2023-04-05T19:39:48.484Z,38.70
2023-04-05T19:42:17.817Z,38.62
2023-04-05T19:44:52.376Z,38.80
2023-04-05T19:47:22.507Z,37.93
2023-04-05T19:49:53.822Z,38.88
2023-04-05T19:52:42.571Z,39.37
2023-04-05T19:55:30.071Z,39.37
2023-04-05T19:57:59.850Z,39.52
2023-04-05T20:00:34.275Z,39.81
2023-04-05T20:03:04.255Z,39.63
2023-04-05T20:05:59.301Z,39.86
2023-04-05T20:08:31.766Z,40.00
2023-04-05T20:11:01.284Z,39.40
2023-04-05T20:13:30.802Z,39.63
2023-04-05T20:16:00.353Z,40.11
2023-04-05T20:18:30.085Z,40.00
2023-04-05T20:20:59.633Z,40.16
2023-04-05T20:23:31.752Z,40.35
2023-04-05T20:26:01.079Z,40.30
2023-04-05T20:28:31.141Z,40.37
2023-04-05T20:31:00.521Z,41.09
2023-04-05T20:33:36.690Z,40.72
2023-04-05T20:36:10.861Z,41.02
2023-04-05T20:38:43.408Z,40.60
2023-04-05T20:41:12.928Z,40.73
2023-04-05T20:43:42.425Z,39.98
2023-04-05T20:46:12.960Z,38.96
2023-04-05T20:48:42.348Z,40.01
2023-04-05T20:51:11.833Z,39.67
2023-04-05T20:53:43.706Z,41.03
2023-04-05T20:56:13.125Z,40.90
2023-04-05T20:58:42.924Z,41.33
2023-04-05T21:01:12.275Z,41.53
2023-04-05T21:03:42.393Z,41.60
2023-04-05T21:06:12.025Z,41.23
2023-04-05T21:08:43.982Z,40.52
2023-04-05T21:11:13.596Z,41.39
2023-04-05T21:13:43.550Z,41.65
2023-04-05T21:16:13.203Z,41.84
2023-04-05T21:18:42.458Z,41.70
2023-04-05T21:21:11.746Z,42.15
2023-04-05T21:23:41.038Z,42.29
2023-04-05T21:26:12.882Z,42.90
2023-04-05T21:28:42.137Z,42.85
2023-04-05T21:31:11.762Z,42.79
2023-04-05T21:33:41.703Z,42.52
2023-04-05T21:36:11.166Z,43.18
2023-04-05T21:38:40.410Z,43.39
2023-04-05T21:41:09.695Z,43.99
2023-04-05T21:43:41.549Z,44.14
2023-04-05T21:46:12.082Z,44.11
2023-04-05T21:48:41.367Z,43.80
2023-04-05T21:51:10.633Z,43.93
2023-04-05T21:53:39.886Z,43.70
2023-04-05T21:56:09.270Z,43.56
2023-04-05T21:58:42.357Z,44.15
2023-04-05T22:01:11.690Z,44.59
2023-04-05T22:03:41.035Z,44.83
2023-04-05T22:06:10.615Z,44.81
2023-04-05T22:08:39.890Z,44.73
2023-04-05T22:11:09.289Z,44.87
2023-04-05T22:13:41.409Z,44.53
2023-04-05T22:16:10.886Z,45.02
2023-04-05T22:18:40.183Z,44.51
2023-04-05T22:21:09.442Z,45.18
2023-04-05T22:23:39.610Z,45.29
2023-04-05T22:26:10.308Z,45.78
2023-04-05T22:28:42.162Z,45.80
2023-04-05T22:31:11.418Z,45.39
2023-04-05T22:33:40.685Z,45.60
2023-04-05T22:36:10.670Z,45.82
2023-04-05T22:38:39.932Z,45.07
2023-04-05T22:41:09.194Z,45.57
2023-04-05T22:43:38.530Z,45.80
2023-04-05T22:46:10.624Z,46.46
2023-04-05T22:48:39.970Z,46.37
2023-04-05T22:51:09.260Z,46.41
2023-04-05T22:53:38.541Z,46.84
2023-04-05T22:56:08.155Z,46.65
2023-04-05T22:58:37.461Z,46.63
2023-04-05T23:01:06.967Z,46.75
2023-04-05T23:03:38.850Z,47.02
2023-04-05T23:06:08.305Z,46.72
2023-04-05T23:08:37.827Z,46.31
2023-04-05T23:11:07.386Z,46.54
2023-04-05T23:13:36.730Z,47.07
2023-04-05T23:16:06.595Z,47.08
2023-04-05T23:18:35.905Z,46.99
2023-04-05T23:21:07.835Z,46.82
2023-04-05T23:23:37.631Z,46.98
2023-04-05T23:26:07.120Z,46.96
2023-04-05T23:28:36.417Z,47.41
2023-04-05T23:31:05.861Z,47.52
2023-04-05T23:33:36.036Z,47.70
2023-04-05T23:36:08.344Z,48.11
2023-04-05T23:38:37.708Z,48.18
2023-04-05T23:41:07.248Z,48.22
2023-04-05T23:43:36.797Z,48.24
2023-04-05T23:46:07.006Z,48.38
2023-04-05T23:48:36.515Z,48.50
2023-04-05T23:51:08.478Z,48.68
2023-04-05T23:53:37.866Z,48.52
2023-04-05T23:56:07.519Z,48.79
2023-04-05T23:58:36.808Z,48.83
